sensor_id;sensor_type;location;lat;lon;timestamp;temperature;humidity
22426;DHT22;11380;50.822;15.790;2023-04-21T00:01:04;4.90;99.90
22426;DHT22;11380;50.822;15.790;2023-04-21T00:06:12;4.70;99.90
22426;DHT22;11380;50.822;15.790;2023-04-21T00:11:20;4.60;99.90
22426;DHT22;11380;50.822;15.790;2023-04-21T00:16:26;4.30;99.90
22426;DHT22;11380;50.822;15.790;2023-04-21T00:21:32;4.30;99.90
22426;DHT22;11380;50.822;15.790;2023-04-21T00:26:39;4.30;99.90
22426;DHT22;11380;50.822;15.790;2023-04-21T00:31:45;4.40;99.90
22426;DHT22;11380;50.822;15.790;2023-04-21T00:36:51;4.20;99.90
22426;DHT22;11380;50.822;15.790;2023-04-21T00:41:56;4.00;99.90
22426;DHT22;11380;50.822;15.790;2023-04-21T00:47:03;4.30;99.90
22426;DHT22;11380;50.822;15.790;2023-04-21T00:52:08;4.10;99.90
22426;DHT22;11380;50.822;15.790;2023-04-21T00:57:14;4.10;99.90
22426;DHT22;11380;50.822;15.790;2023-04-21T01:02:20;3.90;99.90
22426;DHT22;11380;50.822;15.790;2023-04-21T01:07:27;4.30;99.90
22426;DHT22;11380;50.822;15.790;2023-04-21T01:12:40;4.50;99.90
22426;DHT22;11380;50.822;15.790;2023-04-21T01:17:48;4.70;99.90
22426;DHT22;11380;50.822;15.790;2023-04-21T01:22:56;4.60;99.90
22426;DHT22;11380;50.822;15.790;2023-04-21T01:28:02;4.70;99.90
22426;DHT22;11380;50.822;15.790;2023-04-21T01:33:09;4.50;99.90
22426;DHT22;11380;50.822;15.790;2023-04-21T01:38:15;4.50;99.90
22426;DHT22;11380;50.822;15.790;2023-04-21T01:43:23;4.50;99.90
22426;DHT22;11380;50.822;15.790;2023-04-21T01:48:29;4.50;99.90
22426;DHT22;11380;50.822;15.790;2023-04-21T01:53:35;4.40;99.90
22426;DHT22;11380;50.822;15.790;2023-04-21T01:58:41;4.20;99.90
22426;DHT22;11380;50.822;15.790;2023-04-21T02:03:48;4.20;99.90
22426;DHT22;11380;50.822;15.790;2023-04-21T02:08:54;4.30;99.90
22426;DHT22;11380;50.822;15.790;2023-04-21T02:14:01;4.30;99.90
22426;DHT22;11380;50.822;15.790;2023-04-21T02:19:08;4.40;99.90
22426;DHT22;11380;50.822;15.790;2023-04-21T02:24:14;4.20;99.90
22426;DHT22;11380;50.822;15.790;2023-04-21T02:29:20;3.90;99.90
22426;DHT22;11380;50.822;15.790;2023-04-21T02:34:26;3.70;99.90
22426;DHT22;11380;50.822;15.790;2023-04-21T02:39:32;3.80;99.90
22426;DHT22;11380;50.822;15.790;2023-04-21T02:44:39;3.80;99.90
22426;DHT22;11380;50.822;15.790;2023-04-21T02:49:45;3.30;99.90
22426;DHT22;11380;50.822;15.790;2023-04-21T02:54:51;3.30;99.90
22426;DHT22;11380;50.822;15.790;2023-04-21T02:59:57;3.50;99.90
22426;DHT22;11380;50.822;15.790;2023-04-21T03:05:04;3.50;99.90
22426;DHT22;11380;50.822;15.790;2023-04-21T03:10:10;3.60;99.90
22426;DHT22;11380;50.822;15.790;2023-04-21T03:15:16;3.60;99.90
22426;DHT22;11380;50.822;15.790;2023-04-21T03:20:22;3.50;99.90
22426;DHT22;11380;50.822;15.790;2023-04-21T03:25:29;3.60;99.90
22426;DHT22;11380;50.822;15.790;2023-04-21T03:30:35;3.60;99.90
22426;DHT22;11380;50.822;15.790;2023-04-21T03:35:41;3.60;99.90
22426;DHT22;11380;50.822;15.790;2023-04-21T03:40:48;3.40;99.90
22426;DHT22;11380;50.822;15.790;2023-04-21T03:45:55;3.60;99.90
22426;DHT22;11380;50.822;15.790;2023-04-21T03:51:01;3.70;99.90
22426;DHT22;11380;50.822;15.790;2023-04-21T03:56:07;3.20;99.90
22426;DHT22;11380;50.822;15.790;2023-04-21T04:01:13;3.40;99.90
22426;DHT22;11380;50.822;15.790;2023-04-21T04:06:20;3.50;99.90
22426;DHT22;11380;50.822;15.790;2023-04-21T04:11:26;3.50;99.90
22426;DHT22;11380;50.822;15.790;2023-04-21T04:16:32;3.50;99.90
22426;DHT22;11380;50.822;15.790;2023-04-21T04:21:38;3.70;99.90
22426;DHT22;11380;50.822;15.790;2023-04-21T04:26:45;3.90;99.90
22426;DHT22;11380;50.822;15.790;2023-04-21T04:31:51;3.90;99.90
22426;DHT22;11380;50.822;15.790;2023-04-21T04:36:57;3.10;99.90
22426;DHT22;11380;50.822;15.790;2023-04-21T04:42:06;3.00;99.90
22426;DHT22;11380;50.822;15.790;2023-04-21T04:47:13;3.20;99.90
22426;DHT22;11380;50.822;15.790;2023-04-21T04:52:19;3.30;99.90
22426;DHT22;11380;50.822;15.790;2023-04-21T04:57:25;3.50;99.90
22426;DHT22;11380;50.822;15.790;2023-04-21T05:02:31;3.90;99.90
22426;DHT22;11380;50.822;15.790;2023-04-21T05:07:37;4.10;99.90
22426;DHT22;11380;50.822;15.790;2023-04-21T05:12:43;4.50;99.90
22426;DHT22;11380;50.822;15.790;2023-04-21T05:17:49;4.60;99.90
22426;DHT22;11380;50.822;15.790;2023-04-21T05:22:55;5.10;99.90
22426;DHT22;11380;50.822;15.790;2023-04-21T05:28:02;5.50;99.90
22426;DHT22;11380;50.822;15.790;2023-04-21T05:33:07;6.00;99.90
22426;DHT22;11380;50.822;15.790;2023-04-21T05:38:14;6.40;99.90
22426;DHT22;11380;50.822;15.790;2023-04-21T05:43:20;6.80;99.90
22426;DHT22;11380;50.822;15.790;2023-04-21T05:48:26;7.10;99.90
22426;DHT22;11380;50.822;15.790;2023-04-21T05:53:32;7.20;99.90
22426;DHT22;11380;50.822;15.790;2023-04-21T05:58:38;7.60;99.90
22426;DHT22;11380;50.822;15.790;2023-04-21T06:03:44;8.10;99.90
22426;DHT22;11380;50.822;15.790;2023-04-21T06:08:53;8.50;99.90
22426;DHT22;11380;50.822;15.790;2023-04-21T06:13:59;9.10;99.90
22426;DHT22;11380;50.822;15.790;2023-04-21T06:19:04;9.40;99.90
22426;DHT22;11380;50.822;15.790;2023-04-21T06:24:10;9.90;99.90
22426;DHT22;11380;50.822;15.790;2023-04-21T06:29:17;10.00;1.00
22426;DHT22;11380;50.822;15.790;2023-04-21T06:34:23;10.10;1.00
22426;DHT22;11380;50.822;15.790;2023-04-21T06:39:29;10.60;1.00
22426;DHT22;11380;50.822;15.790;2023-04-21T06:44:35;11.10;1.00
22426;DHT22;11380;50.822;15.790;2023-04-21T06:49:42;11.40;99.90
22426;DHT22;11380;50.822;15.790;2023-04-21T06:54:49;11.60;1.00
22426;DHT22;11380;50.822;15.790;2023-04-21T06:59:55;12.00;1.00
22426;DHT22;11380;50.822;15.790;2023-04-21T07:05:01;12.40;1.00
22426;DHT22;11380;50.822;15.790;2023-04-21T07:10:08;13.00;1.00
22426;DHT22;11380;50.822;15.790;2023-04-21T07:15:13;13.30;1.00
22426;DHT22;11380;50.822;15.790;2023-04-21T07:20:20;13.60;1.00
22426;DHT22;11380;50.822;15.790;2023-04-21T07:25:27;14.40;97.90
22426;DHT22;11380;50.822;15.790;2023-04-21T07:30:34;14.70;40.60
22426;DHT22;11380;50.822;15.790;2023-04-21T07:35:40;14.80;59.20
22426;DHT22;11380;50.822;15.790;2023-04-21T07:40:47;15.20;31.30
22426;DHT22;11380;50.822;15.790;2023-04-21T07:45:54;15.50;17.90
22426;DHT22;11380;50.822;15.790;2023-04-21T07:50:59;15.60;24.10
22426;DHT22;11380;50.822;15.790;2023-04-21T07:56:06;15.70;25.50
22426;DHT22;11380;50.822;15.790;2023-04-21T08:01:12;16.00;33.10
22426;DHT22;11380;50.822;15.790;2023-04-21T08:06:21;16.20;21.40
22426;DHT22;11380;50.822;15.790;2023-04-21T08:11:27;16.20;18.30
22426;DHT22;11380;50.822;15.790;2023-04-21T08:16:33;16.40;18.50
22426;DHT22;11380;50.822;15.790;2023-04-21T08:21:39;16.30;7.40
22426;DHT22;11380;50.822;15.790;2023-04-21T08:26:46;16.40;17.80
22426;DHT22;11380;50.822;15.790;2023-04-21T08:31:52;16.50;18.80
22426;DHT22;11380;50.822;15.790;2023-04-21T08:36:57;16.80;21.90
22426;DHT22;11380;50.822;15.790;2023-04-21T08:42:03;17.20;23.00
22426;DHT22;11380;50.822;15.790;2023-04-21T08:47:10;17.00;28.10
22426;DHT22;11380;50.822;15.790;2023-04-21T08:52:16;17.10;2.70
22426;DHT22;11380;50.822;15.790;2023-04-21T08:57:23;17.60;5.40
22426;DHT22;11380;50.822;15.790;2023-04-21T09:02:29;17.50;1.00
22426;DHT22;11380;50.822;15.790;2023-04-21T09:07:36;17.60;8.90
22426;DHT22;11380;50.822;15.790;2023-04-21T09:12:47;17.00;1.00
22426;DHT22;11380;50.822;15.790;2023-04-21T09:17:57;17.30;1.00
22426;DHT22;11380;50.822;15.790;2023-04-21T09:23:06;15.70;1.00
22426;DHT22;11380;50.822;15.790;2023-04-21T09:28:14;16.20;1.00
22426;DHT22;11380;50.822;15.790;2023-04-21T09:33:19;15.90;3.90
22426;DHT22;11380;50.822;15.790;2023-04-21T09:38:26;15.50;1.00
22426;DHT22;11380;50.822;15.790;2023-04-21T09:43:33;15.40;1.00
22426;DHT22;11380;50.822;15.790;2023-04-21T09:48:40;15.80;1.00
22426;DHT22;11380;50.822;15.790;2023-04-21T09:53:47;16.70;1.00
22426;DHT22;11380;50.822;15.790;2023-04-21T09:58:56;16.20;1.00
22426;DHT22;11380;50.822;15.790;2023-04-21T10:04:02;16.60;1.00
22426;DHT22;11380;50.822;15.790;2023-04-21T10:09:10;17.00;1.00
22426;DHT22;11380;50.822;15.790;2023-04-21T10:14:16;16.20;1.00
22426;DHT22;11380;50.822;15.790;2023-04-21T10:19:26;16.10;1.00
22426;DHT22;11380;50.822;15.790;2023-04-21T10:24:35;16.20;1.00
22426;DHT22;11380;50.822;15.790;2023-04-21T10:29:46;16.40;1.00
22426;DHT22;11380;50.822;15.790;2023-04-21T10:34:55;16.30;1.00
22426;DHT22;11380;50.822;15.790;2023-04-21T10:40:01;17.20;1.00
22426;DHT22;11380;50.822;15.790;2023-04-21T10:45:09;17.50;1.00
22426;DHT22;11380;50.822;15.790;2023-04-21T10:50:17;17.00;1.00
22426;DHT22;11380;50.822;15.790;2023-04-21T10:55:29;16.40;1.00
22426;DHT22;11380;50.822;15.790;2023-04-21T11:00:35;16.60;1.00
22426;DHT22;11380;50.822;15.790;2023-04-21T11:05:42;16.30;1.00
22426;DHT22;11380;50.822;15.790;2023-04-21T11:10:50;16.40;1.00
22426;DHT22;11380;50.822;15.790;2023-04-21T11:16:03;16.40;1.00
22426;DHT22;11380;50.822;15.790;2023-04-21T11:21:14;17.60;1.00
22426;DHT22;11380;50.822;15.790;2023-04-21T11:26:28;17.20;1.00
22426;DHT22;11380;50.822;15.790;2023-04-21T11:31:54;17.90;1.00
22426;DHT22;11380;50.822;15.790;2023-04-21T11:37:02;17.90;1.00
22426;DHT22;11380;50.822;15.790;2023-04-21T11:42:10;18.10;1.00
22426;DHT22;11380;50.822;15.790;2023-04-21T11:47:17;18.70;1.00
22426;DHT22;11380;50.822;15.790;2023-04-21T11:52:27;18.60;1.00
22426;DHT22;11380;50.822;15.790;2023-04-21T11:57:38;18.50;1.00
22426;DHT22;11380;50.822;15.790;2023-04-21T12:02:52;18.60;1.00
22426;DHT22;11380;50.822;15.790;2023-04-21T12:07:54;18.20;1.00
22426;DHT22;11380;50.822;15.790;2023-04-21T12:13:00;17.50;1.00
22426;DHT22;11380;50.822;15.790;2023-04-21T12:18:11;16.80;1.00
22426;DHT22;11380;50.822;15.790;2023-04-21T12:23:15;16.70;1.00
22426;DHT22;11380;50.822;15.790;2023-04-21T12:28:22;18.00;1.00
22426;DHT22;11380;50.822;15.790;2023-04-21T12:33:27;17.60;1.00
22426;DHT22;11380;50.822;15.790;2023-04-21T12:38:34;17.10;1.00
22426;DHT22;11380;50.822;15.790;2023-04-21T12:43:40;17.00;1.00
22426;DHT22;11380;50.822;15.790;2023-04-21T12:48:46;18.20;1.00
22426;DHT22;11380;50.822;15.790;2023-04-21T12:53:52;17.80;1.00
22426;DHT22;11380;50.822;15.790;2023-04-21T12:58:59;17.70;1.00
22426;DHT22;11380;50.822;15.790;2023-04-21T13:04:05;16.40;1.00
22426;DHT22;11380;50.822;15.790;2023-04-21T13:09:12;16.40;1.00
22426;DHT22;11380;50.822;15.790;2023-04-21T13:14:18;17.10;1.00
22426;DHT22;11380;50.822;15.790;2023-04-21T13:19:24;17.60;1.00
22426;DHT22;11380;50.822;15.790;2023-04-21T13:24:29;17.60;1.00
22426;DHT22;11380;50.822;15.790;2023-04-21T13:29:35;17.70;1.00
22426;DHT22;11380;50.822;15.790;2023-04-21T13:34:41;17.10;1.00
22426;DHT22;11380;50.822;15.790;2023-04-21T13:39:46;17.80;1.00
22426;DHT22;11380;50.822;15.790;2023-04-21T13:44:52;17.70;1.00
22426;DHT22;11380;50.822;15.790;2023-04-21T13:49:58;17.80;1.00
22426;DHT22;11380;50.822;15.790;2023-04-21T13:55:04;17.80;1.00
22426;DHT22;11380;50.822;15.790;2023-04-21T14:00:12;18.00;1.00
22426;DHT22;11380;50.822;15.790;2023-04-21T14:05:20;17.90;1.00
22426;DHT22;11380;50.822;15.790;2023-04-21T14:10:26;18.20;1.00
22426;DHT22;11380;50.822;15.790;2023-04-21T14:15:32;17.90;1.00
22426;DHT22;11380;50.822;15.790;2023-04-21T14:20:38;17.70;1.00
22426;DHT22;11380;50.822;15.790;2023-04-21T14:25:44;17.90;1.00
22426;DHT22;11380;50.822;15.790;2023-04-21T14:30:49;17.60;1.00
22426;DHT22;11380;50.822;15.790;2023-04-21T14:35:56;17.60;1.00
22426;DHT22;11380;50.822;15.790;2023-04-21T14:41:02;17.70;1.00
22426;DHT22;11380;50.822;15.790;2023-04-21T14:46:08;17.20;1.00
22426;DHT22;11380;50.822;15.790;2023-04-21T14:51:15;17.30;1.00
22426;DHT22;11380;50.822;15.790;2023-04-21T14:56:22;17.20;1.00
22426;DHT22;11380;50.822;15.790;2023-04-21T15:01:30;17.30;1.00
22426;DHT22;11380;50.822;15.790;2023-04-21T15:06:36;16.90;1.00
22426;DHT22;11380;50.822;15.790;2023-04-21T15:11:43;16.90;1.00
22426;DHT22;11380;50.822;15.790;2023-04-21T15:16:50;16.90;1.00
22426;DHT22;11380;50.822;15.790;2023-04-21T15:21:56;16.80;1.00
22426;DHT22;11380;50.822;15.790;2023-04-21T15:27:02;16.30;1.00
22426;DHT22;11380;50.822;15.790;2023-04-21T15:32:08;16.10;1.00
22426;DHT22;11380;50.822;15.790;2023-04-21T15:37:14;15.90;1.00
22426;DHT22;11380;50.822;15.790;2023-04-21T15:42:26;16.00;1.00
22426;DHT22;11380;50.822;15.790;2023-04-21T15:47:32;16.20;1.00
22426;DHT22;11380;50.822;15.790;2023-04-21T15:52:38;16.50;1.00
22426;DHT22;11380;50.822;15.790;2023-04-21T15:57:46;16.30;1.00
22426;DHT22;11380;50.822;15.790;2023-04-21T16:02:53;15.80;1.00
22426;DHT22;11380;50.822;15.790;2023-04-21T16:07:59;15.70;1.00
22426;DHT22;11380;50.822;15.790;2023-04-21T16:13:06;15.80;1.00
22426;DHT22;11380;50.822;15.790;2023-04-21T16:18:12;15.80;1.00
22426;DHT22;11380;50.822;15.790;2023-04-21T16:23:20;15.80;1.00
22426;DHT22;11380;50.822;15.790;2023-04-21T16:28:28;15.60;1.00
22426;DHT22;11380;50.822;15.790;2023-04-21T16:33:35;15.60;1.00
22426;DHT22;11380;50.822;15.790;2023-04-21T16:38:41;15.40;1.00
22426;DHT22;11380;50.822;15.790;2023-04-21T16:43:47;15.30;1.00
22426;DHT22;11380;50.822;15.790;2023-04-21T16:48:54;15.10;1.00
22426;DHT22;11380;50.822;15.790;2023-04-21T16:54:00;15.10;1.00
22426;DHT22;11380;50.822;15.790;2023-04-21T16:59:07;15.00;1.00
22426;DHT22;11380;50.822;15.790;2023-04-21T17:04:13;15.00;1.00
22426;DHT22;11380;50.822;15.790;2023-04-21T17:09:20;14.80;1.00
22426;DHT22;11380;50.822;15.790;2023-04-21T17:14:28;14.70;1.00
22426;DHT22;11380;50.822;15.790;2023-04-21T17:19:35;14.60;1.00
22426;DHT22;11380;50.822;15.790;2023-04-21T17:24:41;14.20;1.00
22426;DHT22;11380;50.822;15.790;2023-04-21T17:29:49;14.20;1.00
22426;DHT22;11380;50.822;15.790;2023-04-21T17:34:57;13.90;1.00
22426;DHT22;11380;50.822;15.790;2023-04-21T17:40:04;13.70;1.00
22426;DHT22;11380;50.822;15.790;2023-04-21T17:45:13;13.60;1.00
22426;DHT22;11380;50.822;15.790;2023-04-21T17:50:19;13.30;1.00
22426;DHT22;11380;50.822;15.790;2023-04-21T17:55:28;13.30;1.00
22426;DHT22;11380;50.822;15.790;2023-04-21T18:00:34;13.20;1.00
22426;DHT22;11380;50.822;15.790;2023-04-21T18:05:40;13.10;1.00
22426;DHT22;11380;50.822;15.790;2023-04-21T18:10:45;12.70;1.00
22426;DHT22;11380;50.822;15.790;2023-04-21T18:15:52;12.40;1.00
22426;DHT22;11380;50.822;15.790;2023-04-21T18:20:59;12.20;1.00
22426;DHT22;11380;50.822;15.790;2023-04-21T18:26:05;12.00;1.00
22426;DHT22;11380;50.822;15.790;2023-04-21T18:31:12;11.60;1.00
22426;DHT22;11380;50.822;15.790;2023-04-21T18:36:18;11.60;1.00
22426;DHT22;11380;50.822;15.790;2023-04-21T18:41:25;11.70;1.00
22426;DHT22;11380;50.822;15.790;2023-04-21T18:46:32;11.60;1.00
22426;DHT22;11380;50.822;15.790;2023-04-21T18:51:38;11.70;1.00
22426;DHT22;11380;50.822;15.790;2023-04-21T18:56:45;11.70;1.00
22426;DHT22;11380;50.822;15.790;2023-04-21T19:01:52;11.50;1.00
22426;DHT22;11380;50.822;15.790;2023-04-21T19:06:59;11.40;1.00
22426;DHT22;11380;50.822;15.790;2023-04-21T19:12:05;11.40;1.00
22426;DHT22;11380;50.822;15.790;2023-04-21T19:17:12;11.40;1.00
22426;DHT22;11380;50.822;15.790;2023-04-21T19:22:19;10.10;1.00
22426;DHT22;11380;50.822;15.790;2023-04-21T19:27:25;9.80;1.00
22426;DHT22;11380;50.822;15.790;2023-04-21T19:32:31;10.10;99.90
22426;DHT22;11380;50.822;15.790;2023-04-21T19:37:38;10.20;99.90
22426;DHT22;11380;50.822;15.790;2023-04-21T19:42:44;10.20;99.90
22426;DHT22;11380;50.822;15.790;2023-04-21T19:47:53;9.90;1.00
22426;DHT22;11380;50.822;15.790;2023-04-21T19:53:02;9.90;1.00
22426;DHT22;11380;50.822;15.790;2023-04-21T19:58:09;9.70;99.90
22426;DHT22;11380;50.822;15.790;2023-04-21T20:03:18;9.80;99.90
22426;DHT22;11380;50.822;15.790;2023-04-21T20:08:25;9.50;99.90
22426;DHT22;11380;50.822;15.790;2023-04-21T20:13:31;9.40;99.90
22426;DHT22;11380;50.822;15.790;2023-04-21T20:18:37;9.30;99.90
22426;DHT22;11380;50.822;15.790;2023-04-21T20:23:44;9.40;99.90
22426;DHT22;11380;50.822;15.790;2023-04-21T20:28:50;8.90;99.90
22426;DHT22;11380;50.822;15.790;2023-04-21T20:34:01;8.90;1.00
22426;DHT22;11380;50.822;15.790;2023-04-21T20:39:08;8.40;1.00
22426;DHT22;11380;50.822;15.790;2023-04-21T20:44:17;8.30;3.40
22426;DHT22;11380;50.822;15.790;2023-04-21T20:49:25;8.60;99.90
22426;DHT22;11380;50.822;15.790;2023-04-21T20:54:31;8.40;1.00
22426;DHT22;11380;50.822;15.790;2023-04-21T20:59:38;8.20;1.00
22426;DHT22;11380;50.822;15.790;2023-04-21T21:04:44;7.50;99.90
22426;DHT22;11380;50.822;15.790;2023-04-21T21:09:51;7.50;99.90
22426;DHT22;11380;50.822;15.790;2023-04-21T21:14:58;7.40;99.90
22426;DHT22;11380;50.822;15.790;2023-04-21T21:20:04;7.20;1.00
22426;DHT22;11380;50.822;15.790;2023-04-21T21:25:12;7.40;1.00
22426;DHT22;11380;50.822;15.790;2023-04-21T21:30:19;7.50;1.00
22426;DHT22;11380;50.822;15.790;2023-04-21T21:35:26;7.50;71.00
22426;DHT22;11380;50.822;15.790;2023-04-21T21:40:33;7.70;1.00
22426;DHT22;11380;50.822;15.790;2023-04-21T21:45:40;7.00;99.90
22426;DHT22;11380;50.822;15.790;2023-04-21T21:50:47;7.10;99.90
22426;DHT22;11380;50.822;15.790;2023-04-21T21:55:53;7.30;99.90
22426;DHT22;11380;50.822;15.790;2023-04-21T22:01:01;7.20;99.90
22426;DHT22;11380;50.822;15.790;2023-04-21T22:06:08;6.90;99.90
22426;DHT22;11380;50.822;15.790;2023-04-21T22:11:18;6.50;99.90
22426;DHT22;11380;50.822;15.790;2023-04-21T22:16:24;6.70;1.00
22426;DHT22;11380;50.822;15.790;2023-04-21T22:21:31;6.90;99.90
22426;DHT22;11380;50.822;15.790;2023-04-21T22:26:38;6.90;99.90
22426;DHT22;11380;50.822;15.790;2023-04-21T22:31:44;6.90;99.90
22426;DHT22;11380;50.822;15.790;2023-04-21T22:36:50;7.20;99.90
22426;DHT22;11380;50.822;15.790;2023-04-21T22:41:57;6.80;99.90
22426;DHT22;11380;50.822;15.790;2023-04-21T22:47:04;6.80;99.90
22426;DHT22;11380;50.822;15.790;2023-04-21T22:52:10;7.00;99.90
22426;DHT22;11380;50.822;15.790;2023-04-21T22:57:18;6.90;99.90
22426;DHT22;11380;50.822;15.790;2023-04-21T23:02:25;6.90;99.90
22426;DHT22;11380;50.822;15.790;2023-04-21T23:07:31;6.70;99.90
22426;DHT22;11380;50.822;15.790;2023-04-21T23:12:37;6.70;99.90
22426;DHT22;11380;50.822;15.790;2023-04-21T23:17:43;6.40;99.90
22426;DHT22;11380;50.822;15.790;2023-04-21T23:22:49;6.60;99.90
22426;DHT22;11380;50.822;15.790;2023-04-21T23:27:55;6.30;99.90
22426;DHT22;11380;50.822;15.790;2023-04-21T23:33:01;6.40;99.90
22426;DHT22;11380;50.822;15.790;2023-04-21T23:38:08;6.20;99.90
22426;DHT22;11380;50.822;15.790;2023-04-21T23:43:14;6.50;99.90
22426;DHT22;11380;50.822;15.790;2023-04-21T23:48:21;6.30;99.90
22426;DHT22;11380;50.822;15.790;2023-04-21T23:53:27;6.40;99.90
22426;DHT22;11380;50.822;15.790;2023-04-21T23:58:33;6.10;99.90
